Time;durP1;ratioP1;P1;durP2;ratioP2;P2;SDS_P1;SDS_P2;PMS_P1;PMS_P2;Temp;Humidity;BMP_temperature;BMP_pressure;BME280_temperature;BME280_humidity;BME280_pressure;Samples;Min_cycle;Max_cycle;Signal;HPM_P1;HPM_P2
2023/06/27 00:01:14;;;;;;;7.73;7.30;;;21.70;56.70;;;;;;4847811;29;20465;-77
2023/06/27 00:03:42;;;;;;;7.83;7.53;;;21.70;57.20;;;;;;4843715;29;20506;-77
2023/06/27 00:06:10;;;;;;;8.03;7.43;;;21.70;57.60;;;;;;4845357;29;20485;-80
2023/06/27 00:08:39;;;;;;;7.77;7.20;;;21.60;56.40;;;;;;4849958;29;20962;-79
2023/06/27 00:11:07;;;;;;;6.83;6.60;;;21.60;56.90;;;;;;4847178;29;21008;-81
2023/06/27 00:13:40;;;;;;;7.67;7.23;;;21.50;56.70;;;;;;4848106;29;20475;-79
2023/06/27 00:16:13;;;;;;;8.00;7.40;;;21.60;56.40;;;;;;4844753;29;20481;-78
2023/06/27 00:18:42;;;;;;;8.00;7.60;;;21.60;56.50;;;;;;4844077;29;20511;-79
2023/06/27 00:21:10;;;;;;;8.17;7.77;;;21.60;57.90;;;;;;4845956;29;20541;-78
2023/06/27 00:23:38;;;;;;;7.00;6.70;;;21.50;57.80;;;;;;4842434;29;20492;-78
2023/06/27 00:26:06;;;;;;;7.30;7.00;;;21.60;56.50;;;;;;4859148;29;20504;-81
2023/06/27 00:28:35;;;;;;;7.10;6.90;;;21.50;56.30;;;;;;4845361;29;20981;-77
2023/06/27 00:31:03;;;;;;;7.83;7.43;;;21.50;56.60;;;;;;4845569;29;20986;-78
2023/06/27 00:33:32;;;;;;;7.47;7.07;;;21.50;56.30;;;;;;4842555;29;20467;-76
2023/06/27 00:36:01;;;;;;;6.80;6.50;;;21.50;57.10;;;;;;4846256;29;20487;-77
2023/06/27 00:38:29;;;;;;;7.10;6.80;;;21.50;56.70;;;;;;4843763;29;20460;-78
2023/06/27 00:40:57;;;;;;;8.07;7.57;;;21.50;57.00;;;;;;4845972;29;20476;-78
2023/06/27 00:43:25;;;;;;;8.10;7.60;;;21.40;56.40;;;;;;4844451;29;20468;-79
2023/06/27 00:45:53;;;;;;;8.27;7.67;;;21.50;74.60;;;;;;4844094;29;20872;-76
2023/06/27 00:48:22;;;;;;;9.73;7.93;;;21.40;57.30;;;;;;4845323;29;20925;-77
2023/06/27 00:50:56;;;;;;;7.57;7.27;;;21.40;58.20;;;;;;4843900;29;20565;-80
2023/06/27 00:53:24;;;;;;;7.83;7.47;;;21.40;57.00;;;;;;4841165;29;21028;-77
2023/06/27 00:55:52;;;;;;;8.10;7.50;;;21.30;55.90;;;;;;4849459;29;20484;-76
2023/06/27 00:58:20;;;;;;;8.07;7.67;;;21.30;55.90;;;;;;4850243;29;20461;-78
2023/06/27 01:00:48;;;;;;;8.23;7.73;;;21.30;57.50;;;;;;4850468;29;20465;-77
2023/06/27 01:03:18;;;;;;;7.80;7.50;;;21.30;58.20;;;;;;4850770;29;20474;-79
2023/06/27 01:05:47;;;;;;;8.00;7.60;;;21.40;76.40;;;;;;4850693;29;20507;-80
2023/06/27 01:08:24;;;;;;;8.30;7.80;;;21.30;58.20;;;;;;4850036;29;20547;-78
2023/06/27 01:10:59;;;;;;;7.67;7.37;;;21.30;58.20;;;;;;4847278;29;20463;-78
2023/06/27 01:13:33;;;;;;;7.43;7.10;;;21.20;57.10;;;;;;4851887;29;20551;-77
2023/06/27 01:16:02;;;;;;;8.57;8.00;;;21.20;58.10;;;;;;4849656;29;20468;-79
2023/06/27 01:18:32;;;;;;;7.57;7.27;;;21.20;57.80;;;;;;4850575;29;20464;-78
2023/06/27 01:21:01;;;;;;;8.73;8.07;;;21.10;57.40;;;;;;4851396;29;20564;-79
2023/06/27 01:23:39;;;;;;;8.07;7.80;;;21.10;58.40;;;;;;4848724;29;20661;-77
2023/06/27 01:26:08;;;;;;;8.00;7.63;;;21.10;57.70;;;;;;4850156;29;20499;-78
2023/06/27 01:28:37;;;;;;;7.67;7.37;;;21.10;58.30;;;;;;4849492;29;21178;-78
2023/06/27 01:31:05;;;;;;;7.63;7.23;;;21.10;58.40;;;;;;4850890;29;20482;-78
2023/06/27 01:33:39;;;;;;;8.10;7.80;;;21.10;58.10;;;;;;4852595;29;20829;-79
2023/06/27 01:36:13;;;;;;;7.97;7.77;;;21.10;58.30;;;;;;4849159;29;20516;-79
2023/06/27 01:38:51;;;;;;;7.67;7.37;;;21.10;58.60;;;;;;4860612;29;20495;-82
2023/06/27 01:41:23;;;;;;;8.63;7.90;;;21.10;59.50;;;;;;4848722;29;20495;-76
2023/06/27 01:43:55;;;;;;;8.30;7.80;;;21.10;58.30;;;;;;4851051;29;20464;-79
2023/06/27 01:46:24;;;;;;;7.97;7.47;;;21.00;58.20;;;;;;4848719;29;21064;-78
2023/06/27 01:48:53;;;;;;;8.10;7.70;;;21.10;59.10;;;;;;4851616;29;20466;-78
2023/06/27 01:51:21;;;;;;;8.07;7.60;;;21.10;60.10;;;;;;4854183;29;20490;-79
2023/06/27 01:53:49;;;;;;;7.87;7.57;;;21.20;60.60;;;;;;4851886;29;20989;-79
2023/06/27 01:56:18;;;;;;;7.40;7.20;;;21.10;59.30;;;;;;4848827;29;20599;-77
2023/06/27 01:58:48;;;;;;;8.70;8.13;;;21.10;59.20;;;;;;4849103;29;20563;-78
2023/06/27 02:01:16;;;;;;;7.53;7.13;;;21.00;58.10;;;;;;4845905;29;20448;-78
2023/06/27 02:03:44;;;;;;;7.90;7.50;;;21.00;58.30;;;;;;4846285;29;20491;-81
2023/06/27 02:06:12;;;;;;;8.63;8.03;;;21.00;60.50;;;;;;4847653;29;20498;-79
2023/06/27 02:08:40;;;;;;;7.90;7.40;;;21.00;58.70;;;;;;4845410;29;20788;-78
2023/06/27 02:11:08;;;;;;;7.87;7.57;;;21.00;57.90;;;;;;4844967;29;20464;-74
2023/06/27 02:13:38;;;;;;;7.80;7.33;;;21.00;58.60;;;;;;4845762;29;20892;-78
2023/06/27 02:16:07;;;;;;;7.60;7.40;;;21.00;58.60;;;;;;4845599;29;20558;-78
2023/06/27 02:18:35;;;;;;;8.60;8.13;;;21.00;57.50;;;;;;4841208;29;21004;-75
2023/06/27 02:21:04;;;;;;;8.13;7.67;;;21.00;57.80;;;;;;4848233;29;20526;-74
2023/06/27 02:23:32;;;;;;;7.50;7.30;;;20.90;57.70;;;;;;4848461;29;21005;-78
2023/06/27 02:26:00;;;;;;;8.03;7.73;;;20.90;57.80;;;;;;4848144;29;20491;-80
2023/06/27 02:28:28;;;;;;;8.00;7.60;;;20.90;59.10;;;;;;4846400;29;20504;-78
2023/06/27 02:30:56;;;;;;;8.07;7.77;;;20.80;57.80;;;;;;4849726;29;20467;-79
2023/06/27 02:33:25;;;;;;;9.03;8.50;;;20.80;59.00;;;;;;4846893;29;20486;-78
2023/06/27 02:35:53;;;;;;;7.83;7.63;;;20.90;59.00;;;;;;4845436;29;20495;-81
2023/06/27 02:38:21;;;;;;;8.60;8.10;;;20.90;60.00;;;;;;4844047;29;20476;-80
2023/06/27 02:40:50;;;;;;;8.20;7.80;;;20.80;59.90;;;;;;4860653;29;20575;-78
2023/06/27 02:43:18;;;;;;;8.57;8.17;;;20.80;60.10;;;;;;4846030;29;20464;-78
2023/06/27 02:45:46;;;;;;;8.17;7.80;;;20.80;59.00;;;;;;4845633;29;20485;-77
2023/06/27 02:48:14;;;;;;;8.40;8.00;;;20.70;58.70;;;;;;4847089;29;20758;-79
2023/06/27 02:50:46;;;;;;;8.70;8.30;;;20.70;58.70;;;;;;4845233;29;21351;-78
2023/06/27 02:53:14;;;;;;;8.20;7.80;;;20.70;59.40;;;;;;4842737;29;20810;-80
2023/06/27 02:55:42;;;;;;;8.67;8.20;;;20.70;60.00;;;;;;4846670;29;20883;-77
2023/06/27 02:58:10;;;;;;;8.13;7.73;;;20.70;60.10;;;;;;4843356;29;20453;-81
2023/06/27 03:00:38;;;;;;;7.93;7.67;;;20.70;60.00;;;;;;4843843;29;20460;-81
2023/06/27 03:03:06;;;;;;;7.83;7.53;;;20.70;61.10;;;;;;4848398;29;20456;-80
2023/06/27 03:05:34;;;;;;;8.77;8.37;;;20.60;60.10;;;;;;4845482;29;20529;-80
2023/06/27 03:08:04;;;;;;;8.20;7.80;;;20.60;77.40;;;;;;4846565;29;20457;-80
2023/06/27 03:10:33;;;;;;;8.43;8.00;;;20.60;59.60;;;;;;4847316;29;20464;-78
2023/06/27 03:13:01;;;;;;;8.00;7.50;;;20.70;60.20;;;;;;4845879;29;20491;-79
2023/06/27 03:15:29;;;;;;;7.63;7.33;;;20.60;60.10;;;;;;4845109;29;20487;-78
2023/06/27 03:17:57;;;;;;;7.97;7.67;;;20.60;59.70;;;;;;4846273;29;20464;-79
2023/06/27 03:20:26;;;;;;;7.57;7.23;;;20.60;58.80;;;;;;4844450;29;20457;-78
2023/06/27 03:22:54;;;;;;;8.00;7.60;;;20.60;59.00;;;;;;4844645;29;20482;-78
2023/06/27 03:25:23;;;;;;;7.97;7.57;;;20.50;58.80;;;;;;4847834;29;20508;-75
2023/06/27 03:27:51;;;;;;;8.33;7.83;;;20.50;59.40;;;;;;4843927;29;20488;-79
2023/06/27 03:30:20;;;;;;;7.50;7.30;;;20.50;59.60;;;;;;4844286;29;20479;-78
2023/06/27 03:32:48;;;;;;;7.90;7.70;;;20.50;59.20;;;;;;4846959;29;21064;-81
2023/06/27 03:35:17;;;;;;;8.67;8.27;;;20.50;59.30;;;;;;4846627;29;20579;-81
2023/06/27 03:37:45;;;;;;;8.60;8.13;;;20.50;59.30;;;;;;4848353;29;20476;-78
2023/06/27 03:40:13;;;;;;;8.83;8.23;;;20.50;59.40;;;;;;4847991;29;20907;-75
2023/06/27 03:42:42;;;;;;;8.63;8.13;;;20.50;59.80;;;;;;4845542;29;20903;-80
2023/06/27 03:45:11;;;;;;;8.97;8.37;;;20.40;59.20;;;;;;4844149;29;20484;-79
2023/06/27 03:47:39;;;;;;;9.53;8.93;;;20.40;59.00;;;;;;4849994;29;20473;-78
2023/06/27 03:50:08;;;;;;;8.40;8.10;;;20.40;58.00;;;;;;4847958;29;20464;-79
2023/06/27 03:52:36;;;;;;;8.47;8.17;;;20.40;58.80;;;;;;4847485;29;20475;-80
2023/06/27 03:55:04;;;;;;;7.87;7.60;;;20.30;58.10;;;;;;4845751;29;20484;-80
2023/06/27 03:57:32;;;;;;;8.70;8.40;;;20.30;58.30;;;;;;4845404;29;20851;-79
2023/06/27 04:00:03;;;;;;;9.43;8.47;;;20.30;58.80;;;;;;4846492;29;20498;-79
2023/06/27 04:02:31;;;;;;;8.10;7.70;;;20.30;57.80;;;;;;4841947;29;20468;-81
2023/06/27 04:04:59;;;;;;;8.43;8.03;;;20.30;57.60;;;;;;4843716;29;20481;-79
2023/06/27 04:07:28;;;;;;;8.97;8.10;;;20.30;58.50;;;;;;4846909;29;20488;-79
2023/06/27 04:09:56;;;;;;;8.00;7.70;;;20.30;58.10;;;;;;4847879;29;20468;-79
2023/06/27 04:12:24;;;;;;;7.90;7.60;;;20.30;57.60;;;;;;4844639;29;20469;-80
2023/06/27 04:14:52;;;;;;;8.83;8.43;;;20.30;58.10;;;;;;4847161;29;20572;-79
2023/06/27 04:17:22;;;;;;;8.50;7.97;;;20.30;59.50;;;;;;4844698;29;20449;-80
2023/06/27 04:19:50;;;;;;;8.30;7.90;;;20.20;59.20;;;;;;4841686;29;21333;-78
2023/06/27 04:22:18;;;;;;;8.37;7.97;;;20.30;59.90;;;;;;4847219;29;20460;-78
2023/06/27 04:24:46;;;;;;;8.20;7.77;;;20.30;59.00;;;;;;4847165;29;20492;-78
2023/06/27 04:27:14;;;;;;;8.60;7.90;;;20.30;60.20;;;;;;4844498;29;20778;-78
2023/06/27 04:29:43;;;;;;;8.53;8.07;;;20.20;58.60;;;;;;4856533;29;20840;-79
2023/06/27 04:32:11;;;;;;;7.97;7.77;;;20.20;59.30;;;;;;4849616;29;20459;-80
2023/06/27 04:34:40;;;;;;;9.00;8.50;;;20.30;60.20;;;;;;4846469;29;20489;-78
2023/06/27 04:37:08;;;;;;;8.23;7.93;;;20.20;59.80;;;;;;4842137;29;20456;-76
2023/06/27 04:39:36;;;;;;;8.83;8.20;;;20.20;61.10;;;;;;4846036;29;20448;-79
2023/06/27 04:42:05;;;;;;;8.60;8.30;;;20.20;60.30;;;;;;4842855;29;20970;-74
2023/06/27 04:44:33;;;;;;;8.63;8.23;;;20.20;62.00;;;;;;4843117;29;20460;-78
2023/06/27 04:47:01;;;;;;;7.90;7.67;;;20.20;62.80;;;;;;4848774;29;20481;-76
2023/06/27 04:49:29;;;;;;;9.00;8.60;;;20.30;64.60;;;;;;4844172;29;20467;-76
2023/06/27 04:51:58;;;;;;;8.90;8.60;;;20.10;62.80;;;;;;4848225;29;20224;-73
2023/06/27 04:54:26;;;;;;;9.17;8.77;;;20.20;64.40;;;;;;4856569;29;20468;-71
2023/06/27 04:56:54;;;;;;;9.47;9.07;;;20.30;65.70;;;;;;4839760;29;20472;-70
2023/06/27 04:59:39;;;;;;;8.77;8.27;;;20.30;65.70;;;;;;4839840;29;20475;-71
2023/06/27 05:02:08;;;;;;;9.50;8.97;;;20.30;64.80;;;;;;4845385;29;20476;-72
2023/06/27 05:04:36;;;;;;;9.40;8.90;;;20.30;78.80;;;;;;4839364;29;20780;-72
2023/06/27 05:07:06;;;;;;;8.87;8.47;;;20.30;64.20;;;;;;4844540;29;20552;-72
2023/06/27 05:09:34;;;;;;;8.70;8.50;;;20.30;64.80;;;;;;4843970;29;20462;-74
2023/06/27 05:12:02;;;;;;;9.00;8.50;;;20.20;64.80;;;;;;4844175;29;20973;-74
2023/06/27 05:14:32;;;;;;;8.77;8.37;;;20.30;65.20;;;;;;4846928;29;20891;-73
2023/06/27 05:17:00;;;;;;;8.53;8.20;;;20.30;64.30;;;;;;4844446;29;20464;-73
2023/06/27 05:19:28;;;;;;;9.23;8.63;;;20.20;63.70;;;;;;4843288;29;20554;-73
2023/06/27 05:21:56;;;;;;;8.30;8.10;;;20.20;64.70;;;;;;4840979;29;20480;-72
2023/06/27 05:24:25;;;;;;;8.30;8.00;;;20.30;66.10;;;;;;4843319;29;20993;-72
2023/06/27 05:26:53;;;;;;;8.50;8.20;;;20.30;65.50;;;;;;4835781;29;20488;-73
2023/06/27 05:29:22;;;;;;;8.23;7.83;;;20.30;65.60;;;;;;4843434;29;20552;-72
2023/06/27 05:31:53;;;;;;;8.40;8.10;;;20.30;63.60;;;;;;4843828;29;20456;-73
2023/06/27 05:34:21;;;;;;;8.40;8.00;;;20.30;64.70;;;;;;4842160;29;20876;-72
2023/06/27 05:36:50;;;;;;;8.90;8.30;;;20.40;66.50;;;;;;4843021;29;20484;-73
2023/06/27 05:39:18;;;;;;;8.33;7.93;;;20.40;65.90;;;;;;4845508;29;20462;-71
2023/06/27 05:41:47;;;;;;;8.73;8.10;;;20.40;67.80;;;;;;4850160;29;20465;-70
2023/06/27 05:44:15;;;;;;;8.40;8.10;;;20.50;87.70;;;;;;4847186;29;20471;-75
2023/06/27 05:46:48;;;;;;;8.63;8.13;;;20.50;69.80;;;;;;4851391;29;20490;-72
2023/06/27 05:49:17;;;;;;;8.73;8.33;;;20.50;68.70;;;;;;4846825;29;20468;-72
2023/06/27 05:51:45;;;;;;;9.70;9.00;;;20.50;69.20;;;;;;4850788;29;20460;-74
2023/06/27 05:54:13;;;;;;;9.10;8.50;;;20.60;70.40;;;;;;4849441;29;21046;-71
2023/06/27 05:56:41;;;;;;;8.50;8.00;;;20.70;90.00;;;;;;4848542;29;20907;-70
2023/06/27 05:59:10;;;;;;;8.40;8.10;;;20.70;71.90;;;;;;4843541;29;20467;-77
2023/06/27 06:01:38;;;;;;;9.10;8.80;;;20.70;74.00;;;;;;4840972;29;20460;-75
2023/06/27 06:04:07;;;;;;;8.57;8.10;;;20.80;73.30;;;;;;4860955;29;20504;-73
2023/06/27 06:06:37;;;;;;;8.47;8.17;;;20.80;71.60;;;;;;4851412;29;21030;-79
2023/06/27 06:09:06;;;;;;;8.73;8.30;;;20.80;70.90;;;;;;4849064;29;20478;-78
2023/06/27 06:11:34;;;;;;;9.87;9.40;;;20.90;72.60;;;;;;4850018;29;20476;-80
2023/06/27 06:14:03;;;;;;;9.97;9.23;;;21.00;73.50;;;;;;4843330;29;21026;-78
2023/06/27 06:16:33;;;;;;;8.63;8.23;;;21.10;75.90;;;;;;4844203;29;20848;-77
2023/06/27 06:19:03;;;;;;;12.40;10.00;;;21.10;73.80;;;;;;4847457;29;20469;-79
2023/06/27 06:21:32;;;;;;;8.73;8.43;;;21.20;73.80;;;;;;4845723;29;20894;-78
2023/06/27 06:24:01;;;;;;;8.37;7.97;;;21.20;71.30;;;;;;4846009;29;20978;-81
2023/06/27 06:26:30;;;;;;;7.97;7.53;;;21.20;72.80;;;;;;4846703;29;20503;-78
2023/06/27 06:28:58;;;;;;;7.73;7.43;;;21.20;71.20;;;;;;4847370;29;20888;-80
2023/06/27 06:31:26;;;;;;;7.77;7.23;;;21.30;73.60;;;;;;4847730;29;20991;-78
2023/06/27 06:33:57;;;;;;;7.90;7.60;;;21.30;75.10;;;;;;4845838;29;20468;-81
2023/06/27 06:36:25;;;;;;;9.23;8.60;;;21.30;73.50;;;;;;4846185;29;20480;-80
2023/06/27 06:38:54;;;;;;;8.80;8.30;;;21.30;76.70;;;;;;4844979;29;20496;-78
2023/06/27 06:41:22;;;;;;;8.23;7.70;;;21.40;80.10;;;;;;4845932;29;20480;-79
2023/06/27 06:43:51;;;;;;;8.33;7.73;;;21.40;76.90;;;;;;4846542;29;20458;-80
2023/06/27 06:46:19;;;;;;;8.07;7.73;;;21.40;75.70;;;;;;4844513;29;20492;-80
2023/06/27 06:48:48;;;;;;;7.80;7.50;;;21.40;92.40;;;;;;4845933;29;20958;-76
2023/06/27 06:51:18;;;;;;;7.77;7.37;;;21.50;77.70;;;;;;4846987;29;20962;-78
2023/06/27 06:53:46;;;;;;;7.90;7.60;;;21.50;77.20;;;;;;4847218;29;20885;-79
2023/06/27 06:56:15;;;;;;;7.60;7.30;;;21.60;77.60;;;;;;4844860;29;20905;-79
2023/06/27 06:58:44;;;;;;;8.10;7.80;;;21.70;75.20;;;;;;4848794;29;20470;-79
2023/06/27 07:01:12;;;;;;;7.50;7.20;;;21.70;76.10;;;;;;4844406;29;20584;-80
2023/06/27 07:03:41;;;;;;;8.33;7.93;;;21.90;77.40;;;;;;4843151;29;20862;-79
2023/06/27 07:06:09;;;;;;;7.60;7.40;;;21.90;78.50;;;;;;4843707;29;20671;-79
2023/06/27 07:08:39;;;;;;;7.70;7.30;;;21.90;77.90;;;;;;4844731;29;20911;-79
2023/06/27 07:11:08;;;;;;;7.90;7.30;;;21.90;79.60;;;;;;4838321;29;20482;-78
2023/06/27 07:13:36;;;;;;;7.03;6.77;;;21.90;90.00;;;;;;4845577;29;20479;-80
2023/06/27 07:16:05;;;;;;;7.50;7.20;;;21.80;70.20;;;;;;4845452;29;20485;-82
2023/06/27 07:18:33;;;;;;;6.90;6.70;;;21.80;73.70;;;;;;4848586;29;20460;-82
2023/06/27 07:21:01;;;;;;;8.20;7.80;;;21.90;74.20;;;;;;4850314;29;20475;-82
2023/06/27 07:23:29;;;;;;;7.50;7.10;;;21.90;71.50;;;;;;4848573;29;20474;-82
2023/06/27 07:25:59;;;;;;;7.20;6.83;;;21.90;71.00;;;;;;4847359;29;20491;-81
2023/06/27 07:28:27;;;;;;;7.40;7.20;;;21.90;71.40;;;;;;4847877;29;21067;-81
2023/06/27 07:30:55;;;;;;;7.03;6.73;;;22.00;73.20;;;;;;4847195;29;20472;-81
2023/06/27 07:33:23;;;;;;;7.20;7.00;;;22.10;75.40;;;;;;4853334;29;20567;-82
2023/06/27 07:35:52;;;;;;;7.10;6.90;;;22.10;72.80;;;;;;4847981;29;20496;-82
2023/06/27 07:38:20;;;;;;;7.00;6.70;;;22.10;72.90;;;;;;4846801;29;21014;-81
2023/06/27 07:40:48;;;;;;;7.00;6.60;;;22.10;75.20;;;;;;4851067;29;20852;-83
2023/06/27 07:43:18;;;;;;;7.03;6.73;;;22.20;73.30;;;;;;4850023;29;20971;-84
2023/06/27 07:45:46;;;;;;;6.97;6.67;;;22.30;74.10;;;;;;4849376;29;20481;-83
2023/06/27 07:48:14;;;;;;;7.13;6.93;;;22.30;75.60;;;;;;4851251;29;20584;-83
2023/06/27 07:50:42;;;;;;;7.73;7.37;;;22.50;77.30;;;;;;4853234;29;20521;-81
2023/06/27 07:53:10;;;;;;;7.50;7.30;;;22.50;78.20;;;;;;4849318;29;20469;-83
2023/06/27 07:55:39;;;;;;;7.13;6.90;;;22.50;77.70;;;;;;4853429;29;20492;-83
2023/06/27 07:58:07;;;;;;;7.40;7.10;;;22.50;77.60;;;;;;4851617;29;20445;-83
2023/06/27 08:00:38;;;;;;;7.00;6.60;;;22.70;79.80;;;;;;4849418;29;20472;-84
2023/06/27 08:03:07;;;;;;;8.33;7.73;;;22.80;79.70;;;;;;4849560;29;20470;-79
2023/06/27 08:05:38;;;;;;;7.30;7.10;;;22.80;82.40;;;;;;4848379;29;20488;-81
2023/06/27 08:08:10;;;;;;;7.30;7.00;;;22.80;80.40;;;;;;4853937;29;20476;-82
2023/06/27 08:27:18;;;;;;;8.20;7.70;;;22.90;80.00;;;;;;4867111;29;20540;-81
2023/06/27 08:29:47;;;;;;;7.83;7.23;;;22.90;82.60;;;;;;4868552;29;20710;-81
2023/06/27 08:32:16;;;;;;;7.83;7.50;;;23.00;86.70;;;;;;4869276;29;20463;-82
2023/06/27 08:57:02;;;;;;;7.57;7.17;;;23.70;90.50;;;;;;4922211;23;20502;-79
2023/06/27 08:59:35;;;;;;;8.23;7.83;;;23.70;90.90;;;;;;4892028;29;20948;-79
2023/06/27 09:02:06;;;;;;;8.53;8.03;;;23.70;89.10;;;;;;4888826;29;20597;-81
2023/06/27 09:04:35;;;;;;;8.13;7.80;;;23.70;89.60;;;;;;4887415;29;20904;-84
2023/06/27 09:07:06;;;;;;;7.60;7.40;;;23.60;87.70;;;;;;4870900;29;20560;-80
2023/06/27 09:09:36;;;;;;;8.07;7.50;;;23.60;96.20;;;;;;4869511;29;20475;-80
2023/06/27 09:12:07;;;;;;;7.77;7.40;;;23.60;86.20;;;;;;4871498;29;20475;-80
2023/06/27 09:17:29;;;;;;;7.20;7.00;;;23.60;87.30;;;;;;4869086;29;20460;-80
2023/06/27 09:25:10;;;;;;;7.87;7.37;;;23.60;86.60;;;;;;4868224;23;20437;-81
2023/06/27 09:27:40;;;;;;;8.87;7.23;;;23.70;85.30;;;;;;4875547;29;20455;-81
2023/06/27 09:30:09;;;;;;;8.73;8.07;;;23.70;87.60;;;;;;4868513;29;20483;-80
2023/06/27 09:32:53;;;;;;;7.90;7.40;;;23.80;86.10;;;;;;4877057;29;20472;-82
2023/06/27 09:44:29;;;;;;;7.23;7.00;;;23.60;79.00;;;;;;4354768;23;20490;-82
2023/06/27 09:46:59;;;;;;;8.13;7.67;;;23.60;82.00;;;;;;4896747;23;20504;-80
2023/06/27 09:49:31;;;;;;;7.50;7.10;;;23.60;76.50;;;;;;4890435;29;20554;-81
2023/06/27 09:52:08;;;;;;;7.20;6.80;;;23.50;73.80;;;;;;4887222;29;20488;-80
2023/06/27 09:54:42;;;;;;;8.17;7.67;;;23.50;76.00;;;;;;4891171;29;20774;-81
2023/06/27 09:57:16;;;;;;;7.10;6.80;;;23.50;78.10;;;;;;4892877;29;20462;-80
2023/06/27 09:59:47;;;;;;;6.70;6.50;;;23.60;79.60;;;;;;4892512;29;20489;-80
2023/06/27 10:06:33;;;;;;;6.80;6.40;;;23.60;78.60;;;;;;4882599;23;20506;-80
2023/06/27 10:09:01;;;;;;;7.37;7.07;;;23.70;79.50;;;;;;4889816;29;20545;-79
2023/06/27 10:11:29;;;;;;;7.07;6.77;;;23.80;80.90;;;;;;4889051;29;20477;-81
2023/06/27 10:13:58;;;;;;;6.73;6.40;;;23.80;79.30;;;;;;4886352;29;20452;-80
2023/06/27 10:16:33;;;;;;;7.10;6.50;;;23.70;78.00;;;;;;4869890;29;20491;-81
2023/06/27 10:19:03;;;;;;;7.07;6.77;;;23.60;77.20;;;;;;4870331;29;20451;-81
2023/06/27 10:21:36;;;;;;;7.40;7.10;;;23.60;76.20;;;;;;4867645;29;20492;-82
2023/06/27 10:24:11;;;;;;;7.00;6.70;;;23.70;81.50;;;;;;4872167;29;20474;-80
2023/06/27 10:26:41;;;;;;;6.93;6.57;;;23.70;79.80;;;;;;4866128;29;20475;-81
2023/06/27 10:29:17;;;;;;;7.60;6.97;;;23.70;79.00;;;;;;4869344;29;20510;-82
2023/06/27 10:31:52;;;;;;;7.50;7.10;;;23.80;80.50;;;;;;4873189;29;20471;-82
2023/06/27 10:34:24;;;;;;;7.70;7.40;;;23.90;82.40;;;;;;4872154;29;20467;-82
2023/06/27 10:37:04;;;;;;;7.50;7.20;;;24.00;86.00;;;;;;4871108;29;20491;-82
2023/06/27 10:39:36;;;;;;;7.57;7.37;;;24.10;87.50;;;;;;4871549;29;20480;-82
2023/06/27 10:42:08;;;;;;;7.50;7.20;;;24.20;86.60;;;;;;4872172;29;20458;-82
2023/06/27 10:47:34;;;;;;;6.87;6.67;;;24.30;85.70;;;;;;4848647;29;20489;-82
2023/06/27 10:50:10;;;;;;;6.87;6.57;;;24.40;84.70;;;;;;4851591;29;20491;-81
2023/06/27 10:52:43;;;;;;;7.70;7.00;;;24.40;86.40;;;;;;4844663;29;20538;-83
2023/06/27 10:55:24;;;;;;;7.47;6.83;;;24.40;97.20;;;;;;4846586;29;20492;-83
2023/06/27 10:58:02;;;;;;;7.03;6.73;;;24.40;87.00;;;;;;4841387;29;20994;-83
2023/06/27 11:00:33;;;;;;;8.23;7.73;;;24.40;87.60;;;;;;4851533;29;21144;-83
2023/06/27 11:03:05;;;;;;;7.43;7.03;;;24.40;87.80;;;;;;4848790;29;20898;-81
2023/06/27 11:05:40;;;;;;;7.90;7.50;;;24.40;88.90;;;;;;4848032;29;20608;-82
2023/06/27 11:08:14;;;;;;;7.43;7.13;;;24.40;88.10;;;;;;4848921;29;20476;-83
2023/06/27 11:11:03;;;;;;;7.50;7.20;;;24.40;89.40;;;;;;4850971;29;20492;-82
2023/06/27 11:13:34;;;;;;;7.37;7.07;;;24.50;90.20;;;;;;4847983;29;20479;-80
2023/06/27 11:16:03;;;;;;;7.27;6.90;;;24.40;86.00;;;;;;4850056;29;21010;-82
2023/06/27 11:18:34;;;;;;;7.53;7.00;;;24.30;84.40;;;;;;4849787;29;20466;-81
2023/06/27 11:21:03;;;;;;;7.07;6.70;;;24.30;85.10;;;;;;4847953;29;20883;-80
2023/06/27 11:23:34;;;;;;;7.37;7.00;;;24.40;85.60;;;;;;4839155;29;20454;-82
2023/06/27 11:29:32;;;;;;;7.43;7.10;;;24.40;87.50;;;;;;4839193;29;20503;-81
2023/06/27 11:32:04;;;;;;;7.90;7.50;;;24.40;86.10;;;;;;4847047;29;20473;-82
2023/06/27 11:34:41;;;;;;;7.50;7.20;;;24.40;84.60;;;;;;4849321;29;20495;-80
2023/06/27 11:37:18;;;;;;;7.17;6.80;;;24.40;86.40;;;;;;4850840;29;20982;-81
2023/06/27 11:40:05;;;;;;;7.23;6.83;;;24.50;85.40;;;;;;4849173;29;20484;-81
2023/06/27 11:42:36;;;;;;;7.70;7.33;;;24.40;84.10;;;;;;4849795;29;20552;-82
2023/06/27 11:45:05;;;;;;;7.73;7.33;;;24.40;84.70;;;;;;4862450;23;20506;-83
2023/06/27 11:47:34;;;;;;;7.87;7.57;;;24.30;83.00;;;;;;4883832;29;20471;-83
2023/06/27 11:50:13;;;;;;;7.73;7.23;;;24.30;83.40;;;;;;4887619;29;20487;-82
2023/06/27 11:52:47;;;;;;;6.63;6.43;;;24.30;82.70;;;;;;4888565;29;20455;-83
2023/06/27 11:55:16;;;;;;;7.77;7.20;;;24.40;86.40;;;;;;4885507;29;20569;-83
2023/06/27 11:57:48;;;;;;;8.10;7.67;;;24.50;85.10;;;;;;4883333;29;21044;-81
2023/06/27 12:00:19;;;;;;;7.43;6.93;;;24.50;85.70;;;;;;4883479;29;20465;-83
2023/06/27 12:02:52;;;;;;;7.93;7.27;;;24.50;85.00;;;;;;4884704;29;20940;-80
2023/06/27 12:16:41;;;;;;;8.60;8.10;;;24.70;90.50;;;;;;3907517;23;20506;-81
2023/06/27 12:19:10;;;;;;;8.13;7.60;;;24.80;90.80;;;;;;4872949;29;20467;-80
2023/06/27 12:21:44;;;;;;;8.03;7.73;;;24.80;90.10;;;;;;4874020;29;20543;-81
2023/06/27 12:24:14;;;;;;;8.10;7.70;;;24.90;90.60;;;;;;4868739;29;20463;-81
2023/06/27 12:26:45;;;;;;;8.70;8.10;;;24.80;90.30;;;;;;4873943;29;20502;-81
2023/06/27 12:29:17;;;;;;;7.80;7.47;;;24.80;89.30;;;;;;4874899;29;20562;-81
2023/06/27 12:31:53;;;;;;;8.50;7.50;;;24.70;90.20;;;;;;4873941;29;20459;-81
2023/06/27 12:34:27;;;;;;;7.70;7.40;;;24.70;89.90;;;;;;4870211;29;20626;-80
2023/06/27 12:36:57;;;;;;;7.70;7.50;;;24.60;88.70;;;;;;4868263;29;20478;-82
2023/06/27 12:39:26;;;;;;;7.77;7.47;;;24.70;90.40;;;;;;4873718;29;20468;-83
2023/06/27 12:41:54;;;;;;;7.37;7.17;;;24.80;90.10;;;;;;4874742;29;20464;-80
2023/06/27 12:44:25;;;;;;;8.07;7.67;;;24.80;89.20;;;;;;4872336;29;20471;-82
2023/06/27 12:46:56;;;;;;;8.17;7.60;;;24.70;87.70;;;;;;4871983;29;20622;-81
2023/06/27 12:49:24;;;;;;;8.10;7.70;;;24.70;87.00;;;;;;4875467;29;20460;-80
2023/06/27 12:51:52;;;;;;;7.63;7.13;;;24.70;87.10;;;;;;4870606;29;20578;-81
2023/06/27 12:54:21;;;;;;;7.40;7.10;;;24.80;89.00;;;;;;4874019;29;20469;-80
2023/06/27 12:56:49;;;;;;;7.90;7.60;;;24.80;88.50;;;;;;4875155;29;20318;-81
2023/06/27 12:59:19;;;;;;;7.97;7.67;;;24.90;91.20;;;;;;4871995;29;20464;-82
2023/06/27 13:01:55;;;;;;;7.83;7.43;;;25.00;91.30;;;;;;4875653;29;21057;-81
2023/06/27 13:04:27;;;;;;;8.27;7.97;;;25.00;91.50;;;;;;4873568;29;20476;-80
2023/06/27 13:06:55;;;;;;;7.70;7.27;;;25.10;91.40;;;;;;4874445;29;20471;-81
2023/06/27 13:09:23;;;;;;;7.57;7.17;;;25.10;91.80;;;;;;4872099;29;20563;-81
2023/06/27 13:11:52;;;;;;;8.37;7.77;;;25.00;92.10;;;;;;4873464;29;21040;-82
2023/06/27 13:14:20;;;;;;;8.03;7.70;;;25.00;90.50;;;;;;4872291;29;20462;-82
2023/06/27 13:16:48;;;;;;;8.33;7.93;;;25.00;91.00;;;;;;4870824;29;20862;-82
2023/06/27 13:19:16;;;;;;;8.43;7.80;;;25.00;91.00;;;;;;4870018;29;20500;-82
2023/06/27 13:21:46;;;;;;;8.73;8.40;;;25.10;91.40;;;;;;4874525;29;20463;-81
2023/06/27 13:24:14;;;;;;;9.80;8.67;;;25.20;91.20;;;;;;4873249;29;20463;-81
2023/06/27 13:26:46;;;;;;;8.40;7.90;;;25.20;91.10;;;;;;4874363;29;20487;-80
2023/06/27 13:29:15;;;;;;;7.50;7.10;;;25.10;90.70;;;;;;4873064;29;21021;-83
2023/06/27 13:31:43;;;;;;;7.53;7.13;;;25.10;90.10;;;;;;4864023;29;20495;-82
2023/06/27 13:34:12;;;;;;;7.93;7.67;;;25.10;89.00;;;;;;4869148;29;20464;-82
2023/06/27 13:40:50;;;;;;;7.40;7.10;;;25.10;89.20;;;;;;4831327;29;20478;-81
2023/06/27 13:43:18;;;;;;;7.70;7.00;;;25.00;87.00;;;;;;4833452;29;20541;-82
2023/06/27 13:46:05;;;;;;;6.47;6.27;;;25.00;85.50;;;;;;4892242;23;20555;-83
2023/06/27 13:48:43;;;;;;;7.47;6.97;;;25.00;84.40;;;;;;4886709;29;20494;-82
2023/06/27 13:51:27;;;;;;;6.73;6.23;;;24.80;83.40;;;;;;4881306;29;20516;-82
2023/06/27 13:54:24;;;;;;;6.30;6.00;;;24.80;82.10;;;;;;4882339;29;20463;-83
2023/06/27 13:57:09;;;;;;;7.23;6.73;;;24.70;80.30;;;;;;4876685;29;20837;-81
2023/06/27 13:59:44;;;;;;;7.07;6.70;;;24.80;82.70;;;;;;4875865;29;20478;-79
2023/06/27 14:02:13;;;;;;;8.20;7.70;;;24.80;82.80;;;;;;4868252;29;21833;-74
2023/06/27 14:04:41;;;;;;;7.30;7.00;;;24.80;83.50;;;;;;4878657;29;20471;-74
2023/06/27 14:07:09;;;;;;;7.17;6.87;;;24.80;85.10;;;;;;4881141;29;20487;-71
2023/06/27 14:09:39;;;;;;;8.60;7.90;;;24.80;84.60;;;;;;4873589;29;20841;-71
2023/06/27 14:12:07;;;;;;;7.37;7.00;;;24.80;84.60;;;;;;4873879;29;21107;-75
2023/06/27 14:14:36;;;;;;;7.10;6.80;;;24.80;80.50;;;;;;4876168;29;20498;-71
2023/06/27 14:17:04;;;;;;;7.20;6.70;;;24.80;82.40;;;;;;4874755;29;20451;-71
2023/06/27 14:19:32;;;;;;;7.70;7.30;;;24.70;77.90;;;;;;4874333;29;20567;-71
2023/06/27 14:22:00;;;;;;;7.77;7.37;;;24.70;78.50;;;;;;4878057;29;20466;-74
2023/06/27 14:24:28;;;;;;;7.20;6.80;;;24.60;77.10;;;;;;4879379;29;20451;-73